createdAt,value
2019-03-10T00:01:47.091Z,58.61
2019-03-10T00:04:13.820Z,59.31
2019-03-10T00:06:40.642Z,59.19
2019-03-10T00:09:08.387Z,59.86
2019-03-10T00:11:35.716Z,59.60
2019-03-10T00:14:02.412Z,59.62
2019-03-10T00:16:29.208Z,60.17
2019-03-10T00:18:56.054Z,60.73
2019-03-10T00:21:22.715Z,61.00
2019-03-10T00:23:49.464Z,60.94
2019-03-10T00:26:16.121Z,60.77
2019-03-10T00:28:42.815Z,60.42
2019-03-10T00:31:09.508Z,60.20
2019-03-10T00:33:36.157Z,60.35
2019-03-10T00:36:02.814Z,60.36
2019-03-10T00:38:35.841Z,60.19
2019-03-10T00:41:12.048Z,60.11
2019-03-10T00:44:02.100Z,59.97
2019-03-10T00:46:55.241Z,59.95
2019-03-10T00:49:40.799Z,59.78
2019-03-10T00:52:20.275Z,59.94
2019-03-10T00:54:47.040Z,60.08
2019-03-10T00:57:13.670Z,60.11
2019-03-10T00:59:40.458Z,60.15
2019-03-10T01:02:07.163Z,60.25
2019-03-10T01:04:34.753Z,60.18
2019-03-10T01:07:01.951Z,59.84
2019-03-10T01:09:28.806Z,60.38
2019-03-10T01:11:55.409Z,60.36
2019-03-10T01:14:22.077Z,60.32
2019-03-10T01:16:49.114Z,60.52
2019-03-10T01:19:16.628Z,60.64
2019-03-10T01:21:44.638Z,60.86
2019-03-10T01:24:11.363Z,61.18
2019-03-10T01:26:38.047Z,61.34
2019-03-10T01:29:05.678Z,61.34
2019-03-10T01:31:45.199Z,61.67
2019-03-10T01:34:37.703Z,61.94
2019-03-10T01:37:04.448Z,62.08
2019-03-10T01:39:31.119Z,62.21
2019-03-10T01:41:57.814Z,62.46
2019-03-10T01:44:24.535Z,62.92
2019-03-10T01:46:51.172Z,62.60
2019-03-10T01:49:17.807Z,62.69
2019-03-10T01:51:44.550Z,62.59
2019-03-10T01:54:11.251Z,62.42
2019-03-10T01:56:37.906Z,62.26
2019-03-10T01:59:04.620Z,62.20
2019-03-10T02:01:31.312Z,62.56
2019-03-10T02:03:57.937Z,62.64
2019-03-10T02:06:24.695Z,62.82
2019-03-10T02:08:51.335Z,62.72
2019-03-10T02:11:18.032Z,62.48
2019-03-10T02:13:44.727Z,62.50
2019-03-10T02:16:11.450Z,63.07
2019-03-10T02:18:38.155Z,63.08
2019-03-10T02:21:04.885Z,63.31
2019-03-10T02:23:31.515Z,63.20
2019-03-10T02:25:58.208Z,63.23
2019-03-10T02:28:24.929Z,62.95
2019-03-10T02:30:51.693Z,63.01
2019-03-10T02:33:18.432Z,63.10
2019-03-10T02:35:45.239Z,62.55
2019-03-10T02:38:11.859Z,62.45
2019-03-10T02:40:38.549Z,62.16
2019-03-10T02:43:05.224Z,61.99
2019-03-10T02:45:31.937Z,62.07
2019-03-10T02:47:58.638Z,62.61
2019-03-10T02:50:25.358Z,62.27
2019-03-10T02:52:51.959Z,62.41
2019-03-10T02:55:18.660Z,62.26
2019-03-10T02:57:45.357Z,62.19
2019-03-10T03:00:12.893Z,62.87
2019-03-10T03:02:39.631Z,62.26
2019-03-10T03:05:07.843Z,62.83
2019-03-10T03:07:35.171Z,64.15
2019-03-10T03:10:01.898Z,64.47
2019-03-10T03:12:28.650Z,64.05
2019-03-10T03:14:55.365Z,64.50
2019-03-10T03:17:22.029Z,63.76
2019-03-10T03:19:48.735Z,63.87
2019-03-10T03:22:15.473Z,64.12
2019-03-10T03:24:42.175Z,64.09
2019-03-10T03:27:08.922Z,64.43
2019-03-10T03:29:36.548Z,64.28
2019-03-10T03:32:03.232Z,64.29
2019-03-10T03:34:30.030Z,64.62
2019-03-10T03:36:56.862Z,64.78
2019-03-10T03:39:26.763Z,64.77
2019-03-10T03:41:53.465Z,64.38
2019-03-10T03:44:20.086Z,64.64
2019-03-10T03:46:46.690Z,64.75
2019-03-10T03:49:13.401Z,64.92
2019-03-10T03:51:41.002Z,64.93
2019-03-10T03:54:08.734Z,65.04
2019-03-10T03:56:35.412Z,64.96
2019-03-10T03:59:02.043Z,65.41
2019-03-10T04:01:45.623Z,65.48
2019-03-10T04:04:12.347Z,65.93
2019-03-10T04:06:39.094Z,66.23
2019-03-10T04:09:07.891Z,66.75
2019-03-10T04:11:34.624Z,66.59
2019-03-10T04:14:01.222Z,66.91
2019-03-10T04:16:27.925Z,66.91
2019-03-10T04:18:54.585Z,67.03
2019-03-10T04:21:21.354Z,67.15
2019-03-10T04:23:48.038Z,67.01
2019-03-10T04:26:14.786Z,66.85
2019-03-10T04:28:41.393Z,66.70
2019-03-10T04:31:08.088Z,66.52
2019-03-10T04:33:34.767Z,66.66
2019-03-10T04:36:01.440Z,66.58
2019-03-10T04:38:28.154Z,66.72
2019-03-10T04:40:54.826Z,66.90
2019-03-10T04:43:21.464Z,66.66
2019-03-10T04:45:48.127Z,66.86
2019-03-10T04:48:14.864Z,66.98
2019-03-10T04:50:41.486Z,66.95
2019-03-10T04:53:08.144Z,66.83
2019-03-10T04:55:39.371Z,66.98
2019-03-10T04:58:13.681Z,66.53
2019-03-10T05:00:42.168Z,66.81
2019-03-10T05:03:08.902Z,66.84
2019-03-10T05:05:35.524Z,66.73
2019-03-10T05:08:02.184Z,67.10
2019-03-10T05:10:29.827Z,66.33
2019-03-10T05:12:56.459Z,66.22
2019-03-10T05:15:23.128Z,66.79
2019-03-10T05:17:50.835Z,65.83
2019-03-10T05:20:17.553Z,66.29
2019-03-10T05:22:44.282Z,66.30
2019-03-10T05:25:13.414Z,66.21
2019-03-10T05:27:40.016Z,65.94
2019-03-10T05:30:08.622Z,65.93
2019-03-10T05:32:35.290Z,66.50
2019-03-10T05:35:02.030Z,66.98
2019-03-10T05:37:28.730Z,67.65
2019-03-10T05:39:56.580Z,68.80
2019-03-10T05:42:23.306Z,69.04
2019-03-10T05:44:49.949Z,68.71
2019-03-10T05:47:16.687Z,69.06
2019-03-10T05:49:43.293Z,69.84
2019-03-10T05:52:09.979Z,70.17
2019-03-10T05:54:36.651Z,70.23
2019-03-10T05:57:03.321Z,70.03
2019-03-10T05:59:29.972Z,70.01
2019-03-10T06:01:56.792Z,69.57
2019-03-10T06:04:23.397Z,69.50
2019-03-10T06:06:50.164Z,69.40
2019-03-10T06:09:16.861Z,69.04
2019-03-10T06:11:44.430Z,69.48
2019-03-10T06:14:11.101Z,69.27
2019-03-10T06:16:37.819Z,69.23
2019-03-10T06:19:04.423Z,69.18
2019-03-10T06:21:31.105Z,69.31
2019-03-10T06:23:57.790Z,68.51
2019-03-10T06:26:24.492Z,68.52
2019-03-10T06:28:51.189Z,68.90
2019-03-10T06:31:19.006Z,68.84
2019-03-10T06:33:45.617Z,68.88
2019-03-10T06:36:12.323Z,68.73
2019-03-10T06:38:39.002Z,68.94
2019-03-10T06:41:05.811Z,68.45
2019-03-10T06:43:32.449Z,68.51
2019-03-10T06:45:59.197Z,68.46
2019-03-10T06:48:25.875Z,68.55
2019-03-10T06:50:52.565Z,67.45
2019-03-10T06:53:19.272Z,67.90
2019-03-10T06:55:45.906Z,67.95
2019-03-10T06:58:12.541Z,68.10
2019-03-10T07:00:39.256Z,67.93
2019-03-10T07:03:05.982Z,67.42
2019-03-10T07:05:32.641Z,66.75
2019-03-10T07:07:59.422Z,66.92
2019-03-10T07:10:26.153Z,66.37
2019-03-10T07:12:53.635Z,66.61
2019-03-10T07:15:20.342Z,66.18
2019-03-10T07:17:47.343Z,65.64
2019-03-10T07:20:16.607Z,65.75
2019-03-10T07:22:43.442Z,65.62
2019-03-10T07:25:10.064Z,65.80
2019-03-10T07:27:41.362Z,65.41
2019-03-10T07:30:27.186Z,65.44
2019-03-10T07:32:55.726Z,64.95
2019-03-10T07:35:40.875Z,64.74
2019-03-10T07:38:09.397Z,64.11
2019-03-10T07:40:54.416Z,64.20
2019-03-10T07:43:28.501Z,63.42
2019-03-10T07:46:02.735Z,63.75
2019-03-10T07:48:34.030Z,63.85
2019-03-10T07:51:11.187Z,63.43
2019-03-10T07:53:39.719Z,63.38
2019-03-10T07:56:20.214Z,62.71
2019-03-10T07:58:54.544Z,62.99
2019-03-10T08:01:28.530Z,62.91
2019-03-10T08:04:02.852Z,62.91
2019-03-10T08:06:43.286Z,62.51
2019-03-10T08:09:24.139Z,61.98
2019-03-10T08:12:04.892Z,62.58
2019-03-10T08:14:33.531Z,61.85
2019-03-10T08:17:01.999Z,61.17
2019-03-10T08:19:46.013Z,60.73
2019-03-10T08:22:29.494Z,61.02
2019-03-10T08:24:57.983Z,60.42
2019-03-10T08:27:27.520Z,59.38
2019-03-10T08:29:59.179Z,59.61
2019-03-10T08:32:44.189Z,59.39
2019-03-10T08:35:27.768Z,59.39
2019-03-10T08:38:08.260Z,59.83
2019-03-10T08:40:55.351Z,59.81
2019-03-10T08:43:29.828Z,59.78
2019-03-10T08:46:14.697Z,58.98
2019-03-10T08:48:43.134Z,58.87
2019-03-10T08:51:17.546Z,59.49
2019-03-10T08:53:48.491Z,58.71
2019-03-10T08:56:19.753Z,58.97
2019-03-10T08:59:04.794Z,58.60
2019-03-10T09:01:39.064Z,58.21
2019-03-10T09:04:13.079Z,58.62
2019-03-10T09:06:56.696Z,58.39
2019-03-10T09:09:28.060Z,57.85
2019-03-10T09:12:02.350Z,57.91
2019-03-10T09:14:39.535Z,57.54
2019-03-10T09:17:15.010Z,56.95
2019-03-10T09:19:49.561Z,56.96
2019-03-10T09:22:20.972Z,56.97
2019-03-10T09:25:01.796Z,56.33
2019-03-10T09:27:48.498Z,56.53
2019-03-10T09:30:33.535Z,56.27
2019-03-10T09:33:07.796Z,55.46
2019-03-10T09:35:36.238Z,55.75
2019-03-10T09:38:04.775Z,55.08
2019-03-10T09:40:42.021Z,54.75
2019-03-10T09:43:16.336Z,54.40
2019-03-10T09:45:44.821Z,54.22
2019-03-10T09:48:19.451Z,54.11
2019-03-10T09:50:47.946Z,53.97
2019-03-10T09:53:19.080Z,53.48
2019-03-10T09:56:04.085Z,53.43
2019-03-10T09:58:47.729Z,53.00
2019-03-10T10:01:22.315Z,51.95
2019-03-10T10:03:59.919Z,51.41
2019-03-10T10:06:44.938Z,51.17
2019-03-10T10:09:28.595Z,51.48
2019-03-10T10:12:13.981Z,50.98
2019-03-10T10:14:45.444Z,51.00
2019-03-10T10:17:28.703Z,51.09
2019-03-10T10:20:13.876Z,51.17
2019-03-10T10:22:45.168Z,51.70
2019-03-10T10:25:19.955Z,52.20
2019-03-10T10:28:05.040Z,52.32
2019-03-10T10:30:33.576Z,52.20
2019-03-10T10:33:17.220Z,52.47
2019-03-10T10:36:02.114Z,53.05
2019-03-10T10:38:33.315Z,53.97
2019-03-10T10:41:01.827Z,53.85
2019-03-10T10:43:47.167Z,54.01
2019-03-10T10:46:32.239Z,53.62
2019-03-10T10:49:17.509Z,54.00
2019-03-10T10:52:02.679Z,53.54
2019-03-10T10:54:33.895Z,53.68
2019-03-10T10:57:05.359Z,53.75
2019-03-10T10:59:33.869Z,53.73
2019-03-10T11:02:14.399Z,53.76
2019-03-10T11:04:42.931Z,53.98
2019-03-10T11:07:14.676Z,54.58
2019-03-10T11:09:52.398Z,53.93
2019-03-10T11:12:23.647Z,53.91
2019-03-10T11:15:10.359Z,53.47
2019-03-10T11:17:41.608Z,53.94
2019-03-10T11:20:14.078Z,53.51
2019-03-10T11:22:45.450Z,53.00
2019-03-10T11:25:26.087Z,52.64
2019-03-10T11:28:11.498Z,52.17
2019-03-10T11:30:43.880Z,53.14
2019-03-10T11:33:24.744Z,51.94
2019-03-10T11:35:53.700Z,52.05
2019-03-10T11:38:37.593Z,52.25
2019-03-10T11:41:06.064Z,52.30
2019-03-10T11:43:34.587Z,52.42
2019-03-10T11:46:30.990Z,52.33
2019-03-10T11:49:16.223Z,52.40
2019-03-10T11:52:02.641Z,52.85
2019-03-10T11:54:31.198Z,52.64
2019-03-10T11:57:02.673Z,52.68
2019-03-10T11:59:40.375Z,52.55
2019-03-10T12:02:25.905Z,52.91
2019-03-10T12:04:57.299Z,52.92
2019-03-10T12:07:26.908Z,52.67
2019-03-10T12:09:53.656Z,52.79
2019-03-10T12:12:20.281Z,52.41
2019-03-10T12:14:47.038Z,52.05
2019-03-10T12:17:13.760Z,52.58
2019-03-10T12:19:40.457Z,52.49
2019-03-10T12:22:07.246Z,52.88
2019-03-10T12:24:34.090Z,53.16
2019-03-10T12:27:00.731Z,53.38
2019-03-10T12:29:27.379Z,53.80
2019-03-10T12:31:54.118Z,53.85
2019-03-10T12:34:20.735Z,54.46
2019-03-10T12:36:47.435Z,54.66
2019-03-10T12:39:14.230Z,55.03
2019-03-10T12:41:40.958Z,55.56
2019-03-10T12:44:07.593Z,56.00
2019-03-10T12:46:34.302Z,56.07
2019-03-10T12:49:00.966Z,56.44
2019-03-10T12:51:27.596Z,56.30
2019-03-10T12:53:54.306Z,56.40
2019-03-10T12:56:20.978Z,56.78
2019-03-10T12:58:47.575Z,56.82
2019-03-10T13:01:14.363Z,56.63
2019-03-10T13:03:41.329Z,56.47
2019-03-10T13:06:08.063Z,56.60
2019-03-10T13:08:34.832Z,56.69
2019-03-10T13:11:01.460Z,56.07
2019-03-10T13:13:28.357Z,55.87
2019-03-10T13:15:54.967Z,55.32
2019-03-10T13:18:21.672Z,54.76
2019-03-10T13:20:48.441Z,54.87
2019-03-10T13:23:15.223Z,55.01
2019-03-10T13:25:43.444Z,54.70
2019-03-10T13:28:11.363Z,54.64
2019-03-10T13:30:37.990Z,54.84
2019-03-10T13:33:04.730Z,54.99
2019-03-10T13:35:31.358Z,54.65
2019-03-10T13:37:58.105Z,54.82
2019-03-10T13:40:24.824Z,54.63
2019-03-10T13:42:51.490Z,54.36
2019-03-10T13:45:18.428Z,54.61
2019-03-10T13:47:45.476Z,54.29
2019-03-10T13:50:13.648Z,54.61
2019-03-10T13:52:40.388Z,55.78
2019-03-10T13:55:08.106Z,54.88
2019-03-10T13:57:34.758Z,54.72
2019-03-10T14:00:01.505Z,54.93
2019-03-10T14:02:28.512Z,55.30
2019-03-10T14:04:55.140Z,55.62
2019-03-10T14:07:21.854Z,55.80
2019-03-10T14:09:48.590Z,55.99
2019-03-10T14:12:15.228Z,56.39
2019-03-10T14:14:41.874Z,56.29
2019-03-10T14:17:08.562Z,56.41
2019-03-10T14:19:35.243Z,56.20
2019-03-10T14:22:01.943Z,56.53
2019-03-10T14:24:28.722Z,56.41
2019-03-10T14:26:55.587Z,56.54
2019-03-10T14:29:22.407Z,56.50
2019-03-10T14:31:50.190Z,56.71
2019-03-10T14:34:16.906Z,57.36
2019-03-10T14:36:43.885Z,57.02
2019-03-10T14:39:10.688Z,56.94
2019-03-10T14:41:37.593Z,57.28
2019-03-10T14:44:04.252Z,57.14
2019-03-10T14:46:31.014Z,56.99
2019-03-10T14:48:57.712Z,57.10
2019-03-10T14:51:24.329Z,56.97
2019-03-10T14:53:51.023Z,57.02
2019-03-10T14:56:17.738Z,56.56
2019-03-10T14:58:44.447Z,56.57
2019-03-10T15:01:11.352Z,56.41
2019-03-10T15:03:38.142Z,56.32
2019-03-10T15:06:04.844Z,56.63
2019-03-10T15:08:31.547Z,56.89
2019-03-10T15:10:58.309Z,56.91
2019-03-10T15:13:25.647Z,56.99
2019-03-10T15:15:52.465Z,57.13
2019-03-10T15:18:19.160Z,56.99
2019-03-10T15:20:45.883Z,57.11
2019-03-10T15:23:12.510Z,57.35
2019-03-10T15:25:39.250Z,57.83
2019-03-10T15:28:05.998Z,57.78
2019-03-10T15:30:32.651Z,57.96
2019-03-10T15:32:59.367Z,58.20
2019-03-10T15:35:26.115Z,58.77
2019-03-10T15:37:54.278Z,58.74
2019-03-10T15:40:20.984Z,59.21
2019-03-10T15:42:47.702Z,59.26
2019-03-10T15:45:15.618Z,58.89
2019-03-10T15:47:43.439Z,58.80
2019-03-10T15:50:22.447Z,58.94
2019-03-10T15:52:49.286Z,59.12
2019-03-10T15:55:15.919Z,59.42
2019-03-10T15:57:50.289Z,59.59
2019-03-10T16:00:21.842Z,59.97
2019-03-10T16:02:48.657Z,60.11
2019-03-10T16:05:15.458Z,59.99
2019-03-10T16:07:42.162Z,60.04
2019-03-10T16:10:12.552Z,60.31
2019-03-10T16:12:39.226Z,60.39
2019-03-10T16:15:14.398Z,60.52
2019-03-10T16:17:41.107Z,60.86
2019-03-10T16:20:10.033Z,60.96
2019-03-10T16:22:37.864Z,61.08
2019-03-10T16:25:10.199Z,61.06
2019-03-10T16:27:36.868Z,61.18
2019-03-10T16:30:10.242Z,61.11
2019-03-10T16:32:36.863Z,61.41
2019-03-10T16:35:05.802Z,61.34
2019-03-10T16:37:32.497Z,61.34
2019-03-10T16:39:59.198Z,61.16
2019-03-10T16:42:25.922Z,61.32
2019-03-10T16:44:52.639Z,61.43
2019-03-10T16:47:19.334Z,61.66
2019-03-10T16:49:46.032Z,61.36
2019-03-10T16:52:12.749Z,61.21
2019-03-10T16:54:39.451Z,61.29
2019-03-10T16:57:06.158Z,61.45
2019-03-10T16:59:34.208Z,61.41
2019-03-10T17:02:01.099Z,61.01
2019-03-10T17:04:27.754Z,60.85
2019-03-10T17:06:54.506Z,60.41
2019-03-10T17:09:21.111Z,60.76
2019-03-10T17:11:47.806Z,61.02
2019-03-10T17:14:14.499Z,61.03
2019-03-10T17:16:41.144Z,61.09
2019-03-10T17:19:09.644Z,61.14
2019-03-10T17:21:36.424Z,61.33
2019-03-10T17:24:03.043Z,61.05
2019-03-10T17:26:29.747Z,60.88
2019-03-10T17:28:56.441Z,60.67
2019-03-10T17:31:23.201Z,60.38
2019-03-10T17:33:50.014Z,60.71
2019-03-10T17:36:16.730Z,60.74
2019-03-10T17:38:43.367Z,60.81
2019-03-10T17:41:10.062Z,61.10
2019-03-10T17:43:36.735Z,60.88
2019-03-10T17:46:03.464Z,60.66
2019-03-10T17:48:30.161Z,60.71
2019-03-10T17:50:56.875Z,60.76
2019-03-10T17:53:23.514Z,60.18
2019-03-10T17:55:50.175Z,60.51
2019-03-10T17:58:16.966Z,60.27
2019-03-10T18:00:43.673Z,60.72
2019-03-10T18:03:10.289Z,60.69
2019-03-10T18:05:37.088Z,61.02
2019-03-10T18:08:03.697Z,60.82
2019-03-10T18:10:30.408Z,60.99
2019-03-10T18:12:57.082Z,61.00
2019-03-10T18:15:23.757Z,61.03
2019-03-10T18:17:50.428Z,60.88
2019-03-10T18:20:19.586Z,60.88
2019-03-10T18:22:46.183Z,61.10
2019-03-10T18:25:13.976Z,60.93
2019-03-10T18:27:40.642Z,61.25
2019-03-10T18:30:18.921Z,60.94
2019-03-10T18:32:45.616Z,60.62
2019-03-10T18:35:12.675Z,60.87
2019-03-10T18:37:39.494Z,60.98
2019-03-10T18:40:15.347Z,61.10
2019-03-10T18:42:42.124Z,60.89
2019-03-10T18:45:11.933Z,61.11
2019-03-10T18:47:38.633Z,61.01
2019-03-10T18:50:08.858Z,60.81
2019-03-10T18:52:35.560Z,60.74
2019-03-10T18:55:02.293Z,61.14
2019-03-10T18:57:29.029Z,60.72
2019-03-10T18:59:55.643Z,60.71
2019-03-10T19:02:22.330Z,61.10
2019-03-10T19:04:49.061Z,61.16
2019-03-10T19:07:15.688Z,60.90
2019-03-10T19:09:42.470Z,61.16
2019-03-10T19:12:09.169Z,61.41
2019-03-10T19:14:35.836Z,61.55
2019-03-10T19:17:02.495Z,61.76
2019-03-10T19:19:31.804Z,62.05
2019-03-10T19:21:57.742Z,62.42
2019-03-10T19:24:24.415Z,61.70
2019-03-10T19:26:51.106Z,61.66
2019-03-10T19:29:17.754Z,61.64
2019-03-10T19:31:45.415Z,61.85
2019-03-10T19:34:12.201Z,61.57
2019-03-10T19:36:38.914Z,61.88
2019-03-10T19:39:05.686Z,62.40
2019-03-10T19:41:34.267Z,62.79
2019-03-10T19:44:00.871Z,62.91
2019-03-10T19:46:27.587Z,63.31
2019-03-10T19:48:55.379Z,63.56
2019-03-10T19:51:22.046Z,63.88
2019-03-10T19:53:48.726Z,64.01
2019-03-10T19:56:15.456Z,64.05
2019-03-10T19:58:42.100Z,64.21
2019-03-10T20:01:08.772Z,64.11
2019-03-10T20:03:35.452Z,64.19
2019-03-10T20:06:02.091Z,64.21
2019-03-10T20:08:28.855Z,64.16
2019-03-10T20:10:55.686Z,64.20
2019-03-10T20:13:22.486Z,64.28
2019-03-10T20:15:52.583Z,64.00
2019-03-10T20:18:18.879Z,64.17
2019-03-10T20:20:46.531Z,63.94
2019-03-10T20:23:13.255Z,64.17
2019-03-10T20:25:39.981Z,64.09
2019-03-10T20:28:09.118Z,64.12
2019-03-10T20:30:35.256Z,64.06
2019-03-10T20:33:01.955Z,63.99
2019-03-10T20:35:28.718Z,63.91
2019-03-10T20:37:55.424Z,64.08
2019-03-10T20:40:24.358Z,64.27
2019-03-10T20:42:51.103Z,64.49
2019-03-10T20:45:17.724Z,64.42
2019-03-10T20:47:44.437Z,64.63
2019-03-10T20:50:19.542Z,64.90
2019-03-10T20:52:46.258Z,64.69
2019-03-10T20:55:13.655Z,64.76
2019-03-10T20:57:40.403Z,64.46
2019-03-10T21:00:21.855Z,64.62
2019-03-10T21:02:48.543Z,64.39
2019-03-10T21:05:15.251Z,64.02
2019-03-10T21:07:42.946Z,63.98
2019-03-10T21:10:12.566Z,64.30
2019-03-10T21:12:41.834Z,64.36
2019-03-10T21:15:12.757Z,64.08
2019-03-10T21:17:39.398Z,64.03
2019-03-10T21:20:12.347Z,63.96
2019-03-10T21:22:38.957Z,63.72
2019-03-10T21:25:09.069Z,63.77
2019-03-10T21:27:38.357Z,64.04
2019-03-10T21:30:10.680Z,64.13
2019-03-10T21:32:38.412Z,64.05
2019-03-10T21:35:05.122Z,64.37
2019-03-10T21:37:31.805Z,64.56
2019-03-10T21:39:58.502Z,64.72
2019-03-10T21:42:25.199Z,64.81
2019-03-10T21:44:51.845Z,64.72
2019-03-10T21:47:18.479Z,64.16
2019-03-10T21:49:45.190Z,64.25
2019-03-10T21:52:11.927Z,64.19
2019-03-10T21:54:38.628Z,64.25
2019-03-10T21:57:05.361Z,64.20
2019-03-10T21:59:33.015Z,64.48
2019-03-10T22:01:59.713Z,64.52
2019-03-10T22:04:26.428Z,64.63
2019-03-10T22:06:53.128Z,64.58
2019-03-10T22:09:19.868Z,64.99
2019-03-10T22:11:46.595Z,65.11
2019-03-10T22:14:13.233Z,65.28
2019-03-10T22:16:39.914Z,64.65
2019-03-10T22:19:06.618Z,64.82
2019-03-10T22:21:33.323Z,64.89
2019-03-10T22:24:00.199Z,64.96
2019-03-10T22:26:26.875Z,64.97
2019-03-10T22:28:53.642Z,65.17
2019-03-10T22:31:20.397Z,65.56
2019-03-10T22:33:47.258Z,65.40
2019-03-10T22:36:13.856Z,65.18
2019-03-10T22:38:40.682Z,65.58
2019-03-10T22:41:07.579Z,65.56
2019-03-10T22:43:34.215Z,65.77
2019-03-10T22:46:00.908Z,65.83
2019-03-10T22:48:27.593Z,65.97
2019-03-10T22:50:54.297Z,65.89
2019-03-10T22:53:20.941Z,65.85
2019-03-10T22:55:47.703Z,65.99
2019-03-10T22:58:14.331Z,65.99
2019-03-10T23:00:45.676Z,66.14
2019-03-10T23:03:12.571Z,66.21
2019-03-10T23:05:41.655Z,66.21
2019-03-10T23:08:08.763Z,66.52
2019-03-10T23:10:35.509Z,66.63
2019-03-10T23:13:02.119Z,66.69
2019-03-10T23:15:28.815Z,67.18
2019-03-10T23:17:55.528Z,66.95
2019-03-10T23:20:22.261Z,67.16
2019-03-10T23:22:49.003Z,67.19
2019-03-10T23:25:15.742Z,67.54
2019-03-10T23:27:42.683Z,67.29
2019-03-10T23:30:12.498Z,67.34
2019-03-10T23:32:39.238Z,67.53
2019-03-10T23:35:05.874Z,67.77
2019-03-10T23:37:32.551Z,67.90
2019-03-10T23:40:00.355Z,67.97
2019-03-10T23:42:27.117Z,68.08
2019-03-10T23:44:53.867Z,68.02
2019-03-10T23:47:20.703Z,68.06
2019-03-10T23:49:47.343Z,67.87
2019-03-10T23:52:15.017Z,68.17
2019-03-10T23:54:41.742Z,68.37
2019-03-10T23:57:08.400Z,69.04
2019-03-10T23:59:35.219Z,69.02
